createdAt,value
2023-03-11T00:01:29.213Z,1.44
2023-03-11T00:04:14.522Z,1.42
2023-03-11T00:06:59.729Z,1.42
2023-03-11T00:09:45.200Z,1.46
2023-03-11T00:12:30.480Z,1.50
2023-03-11T00:15:15.989Z,1.46
2023-03-11T00:18:01.851Z,1.46
2023-03-11T00:20:47.245Z,1.38
2023-03-11T00:23:34.520Z,1.32
2023-03-11T00:26:20.017Z,1.33
2023-03-11T00:29:05.302Z,1.30
2023-03-11T00:31:50.577Z,1.31
2023-03-11T00:34:35.888Z,1.32
2023-03-11T00:37:21.408Z,1.24
2023-03-11T00:40:08.786Z,1.23
2023-03-11T00:42:54.115Z,1.18
2023-03-11T00:45:39.813Z,1.18
2023-03-11T00:48:24.793Z,1.08
2023-03-11T00:51:14.423Z,0.99
2023-03-11T00:54:01.188Z,0.91
2023-03-11T00:56:48.034Z,0.82
2023-03-11T00:59:34.327Z,0.73
2023-03-11T01:02:19.713Z,0.86
2023-03-11T01:05:06.042Z,2.30
2023-03-11T01:07:52.448Z,1.36
2023-03-11T01:10:38.273Z,1.06
2023-03-11T01:13:23.634Z,0.89
2023-03-11T01:16:09.313Z,0.78
2023-03-11T01:18:54.428Z,0.78
2023-03-11T01:21:40.523Z,0.61
2023-03-11T01:24:25.649Z,0.52
2023-03-11T01:27:11.305Z,0.51
2023-03-11T01:29:56.449Z,0.48
2023-03-11T01:32:41.938Z,0.49
2023-03-11T01:35:28.279Z,0.46
2023-03-11T01:38:13.537Z,0.48
2023-03-11T01:40:58.875Z,0.54
2023-03-11T01:43:44.210Z,0.70
2023-03-11T01:46:54.296Z,0.73
2023-03-11T01:49:48.785Z,0.79
2023-03-11T01:52:34.026Z,0.62
2023-03-11T01:55:19.695Z,0.58
2023-03-11T01:58:07.429Z,0.54
2023-03-11T02:00:52.676Z,0.52
2023-03-11T02:03:39.425Z,0.62
2023-03-11T02:06:26.037Z,0.61
2023-03-11T02:09:12.403Z,0.65
2023-03-11T02:11:58.239Z,0.68
2023-03-11T02:14:45.480Z,0.68
2023-03-11T02:17:30.779Z,0.53
2023-03-11T02:20:16.365Z,0.49
2023-03-11T02:23:02.018Z,0.54
2023-03-11T02:25:59.408Z,0.57
2023-03-11T02:28:46.166Z,0.55
2023-03-11T02:31:34.931Z,0.65
2023-03-11T02:34:28.263Z,0.64
2023-03-11T02:37:15.129Z,0.70
2023-03-11T02:40:22.945Z,0.64
2023-03-11T02:43:11.890Z,0.62
2023-03-11T02:45:57.799Z,0.62
2023-03-11T02:48:43.581Z,0.64
2023-03-11T02:51:30.870Z,0.63
2023-03-11T02:54:16.420Z,0.61
2023-03-11T02:57:02.102Z,0.58
2023-03-11T02:59:47.453Z,0.64
2023-03-11T03:02:33.165Z,0.60
2023-03-11T03:05:20.597Z,0.64
2023-03-11T03:08:05.873Z,0.62
2023-03-11T03:10:51.206Z,0.65
2023-03-11T03:13:36.676Z,0.69
2023-03-11T03:16:22.034Z,0.67
2023-03-11T03:19:07.317Z,0.57
2023-03-11T03:21:52.608Z,0.61
2023-03-11T03:24:39.529Z,0.63
2023-03-11T03:27:25.491Z,0.45
2023-03-11T03:30:11.736Z,0.47
2023-03-11T03:32:57.538Z,0.55
2023-03-11T03:35:44.187Z,0.62
2023-03-11T03:38:42.595Z,0.67
2023-03-11T03:41:28.624Z,0.66
2023-03-11T03:44:15.106Z,0.70
2023-03-11T03:47:00.372Z,0.69
2023-03-11T03:49:46.257Z,0.74
2023-03-11T03:52:31.599Z,0.80
2023-03-11T03:55:20.628Z,0.79
2023-03-11T03:58:05.926Z,0.82
2023-03-11T04:00:55.493Z,0.86
2023-03-11T04:03:41.671Z,0.87
2023-03-11T04:06:32.017Z,0.80
2023-03-11T04:09:22.034Z,0.75
2023-03-11T04:12:07.617Z,0.73
2023-03-11T04:14:54.680Z,0.72
2023-03-11T04:17:40.213Z,0.73
2023-03-11T04:20:26.074Z,0.76
2023-03-11T04:23:12.931Z,0.83
2023-03-11T04:25:58.864Z,0.78
2023-03-11T04:28:44.117Z,0.78
2023-03-11T04:31:29.929Z,0.76
2023-03-11T04:34:17.802Z,0.74
2023-03-11T04:37:03.118Z,0.74
2023-03-11T04:39:53.357Z,0.76
2023-03-11T04:42:39.534Z,0.85
2023-03-11T04:45:25.334Z,0.86
2023-03-11T04:48:13.597Z,0.83
2023-03-11T04:50:59.461Z,0.83
2023-03-11T04:53:46.778Z,0.87
2023-03-11T04:56:32.140Z,0.85
2023-03-11T04:59:17.980Z,0.74
2023-03-11T05:02:05.184Z,0.77
2023-03-11T05:04:50.887Z,0.85
2023-03-11T05:07:36.717Z,0.86
2023-03-11T05:10:23.581Z,0.85
2023-03-11T05:13:12.623Z,0.84
2023-03-11T05:15:59.032Z,0.84
2023-03-11T05:18:44.367Z,0.86
2023-03-11T05:21:32.320Z,0.88
2023-03-11T05:24:18.207Z,0.88
2023-03-11T05:27:03.992Z,0.91
2023-03-11T05:29:49.796Z,0.92
2023-03-11T05:32:37.009Z,0.97
2023-03-11T05:35:24.713Z,0.97
2023-03-11T05:38:10.555Z,1.00
2023-03-11T05:40:56.352Z,1.03
2023-03-11T05:43:41.533Z,1.06
2023-03-11T05:46:27.044Z,1.02
2023-03-11T05:49:12.677Z,1.02
2023-03-11T05:51:58.877Z,1.06
2023-03-11T05:54:45.372Z,1.01
2023-03-11T05:57:30.569Z,1.06
2023-03-11T06:00:16.749Z,1.11
2023-03-11T06:03:07.527Z,1.11
2023-03-11T06:05:53.122Z,1.08
2023-03-11T06:08:39.036Z,1.06
2023-03-11T06:11:25.600Z,1.04
2023-03-11T06:14:14.638Z,1.07
2023-03-11T06:17:02.076Z,1.10
2023-03-11T06:19:47.443Z,1.09
2023-03-11T06:22:33.671Z,1.08
2023-03-11T06:25:19.154Z,1.08
2023-03-11T06:28:05.476Z,1.14
2023-03-11T06:30:50.811Z,1.18
2023-03-11T06:33:36.858Z,1.22
2023-03-11T06:36:22.502Z,1.28
2023-03-11T06:39:11.243Z,1.28
2023-03-11T06:41:56.686Z,1.26
2023-03-11T06:44:42.017Z,1.28
2023-03-11T06:47:27.842Z,1.23
2023-03-11T06:50:13.677Z,1.18
2023-03-11T06:52:59.039Z,1.19
2023-03-11T06:55:44.494Z,1.27
2023-03-11T06:58:30.744Z,1.26
2023-03-11T07:01:17.128Z,1.26
2023-03-11T07:04:03.161Z,1.29
2023-03-11T07:06:48.882Z,1.27
2023-03-11T07:09:39.717Z,1.30
2023-03-11T07:12:26.543Z,1.34
2023-03-11T07:15:11.905Z,1.45
2023-03-11T07:17:58.242Z,1.44
2023-03-11T07:20:43.705Z,1.51
2023-03-11T07:23:29.109Z,1.61
2023-03-11T07:26:16.551Z,1.68
2023-03-11T07:29:01.937Z,1.72
2023-03-11T07:31:47.005Z,1.75
2023-03-11T07:34:32.384Z,1.89
2023-03-11T07:37:17.830Z,1.90
2023-03-11T07:40:02.947Z,1.81
2023-03-11T07:42:49.097Z,1.75
2023-03-11T07:45:34.297Z,1.77
2023-03-11T07:48:19.720Z,1.84
2023-03-11T07:51:06.394Z,2.02
2023-03-11T07:53:52.570Z,2.01
2023-03-11T07:56:38.277Z,2.04
2023-03-11T07:59:23.688Z,2.12
2023-03-11T08:02:09.752Z,2.16
2023-03-11T08:04:55.900Z,2.11
2023-03-11T08:07:41.254Z,2.23
2023-03-11T08:10:26.585Z,2.34
2023-03-11T08:13:13.030Z,2.42
2023-03-11T08:15:58.367Z,2.50
2023-03-11T08:18:43.545Z,2.48
2023-03-11T08:21:31.701Z,2.43
2023-03-11T08:24:16.881Z,2.38
2023-03-11T08:27:02.077Z,2.40
2023-03-11T08:29:47.629Z,2.52
2023-03-11T08:32:33.203Z,2.95
2023-03-11T08:35:18.364Z,2.93
2023-03-11T08:38:03.896Z,2.77
2023-03-11T08:40:49.145Z,2.60
2023-03-11T08:43:34.725Z,2.55
2023-03-11T08:46:30.791Z,2.53
2023-03-11T08:49:16.332Z,2.67
2023-03-11T08:52:02.013Z,2.83
2023-03-11T08:54:47.296Z,2.98
2023-03-11T08:57:32.645Z,3.07
2023-03-11T09:00:18.042Z,3.15
2023-03-11T09:03:03.468Z,3.07
2023-03-11T09:05:48.783Z,3.13
2023-03-11T09:08:34.425Z,2.97
2023-03-11T09:11:19.527Z,3.04
2023-03-11T09:14:05.300Z,3.13
2023-03-11T09:16:50.429Z,3.20
2023-03-11T09:19:36.001Z,3.08
2023-03-11T09:22:21.238Z,3.22
2023-03-11T09:25:06.876Z,3.11
2023-03-11T09:27:51.975Z,3.04
2023-03-11T09:30:37.243Z,3.10
2023-03-11T09:33:22.654Z,2.98
2023-03-11T09:36:11.635Z,2.86
2023-03-11T09:38:57.005Z,2.76
2023-03-11T09:42:03.522Z,2.79
2023-03-11T09:44:56.845Z,2.73
2023-03-11T09:47:55.556Z,2.54
2023-03-11T09:50:48.688Z,2.52
2023-03-11T09:53:37.093Z,2.51
2023-03-11T09:56:22.535Z,2.44
2023-03-11T09:59:16.807Z,2.38
2023-03-11T10:02:03.901Z,2.49
2023-03-11T10:04:57.422Z,2.49
2023-03-11T10:07:47.037Z,2.55
2023-03-11T10:10:38.933Z,2.55
2023-03-11T10:13:30.435Z,2.63
2023-03-11T10:16:22.132Z,2.78
2023-03-11T10:19:24.978Z,2.90
2023-03-11T10:22:14.380Z,2.92
2023-03-11T10:25:15.653Z,3.11
2023-03-11T10:28:08.659Z,3.25
2023-03-11T10:31:03.248Z,3.37
2023-03-11T10:33:56.772Z,3.47
2023-03-11T10:36:45.073Z,3.27
2023-03-11T10:39:34.876Z,2.99
2023-03-11T10:42:22.983Z,3.04
2023-03-11T10:45:12.720Z,3.04
2023-03-11T10:47:58.149Z,3.01
2023-03-11T10:50:52.231Z,3.02
2023-03-11T10:53:44.335Z,3.19
2023-03-11T10:56:40.103Z,3.13
2023-03-11T10:59:25.334Z,2.93
2023-03-11T11:02:16.912Z,2.95
2023-03-11T11:05:17.655Z,3.02
2023-03-11T11:08:07.984Z,3.08
2023-03-11T11:10:57.578Z,3.19
2023-03-11T11:13:55.290Z,3.15
2023-03-11T11:16:40.631Z,3.17
2023-03-11T11:19:27.308Z,3.01
2023-03-11T11:22:16.395Z,2.87
2023-03-11T11:25:01.887Z,3.03
2023-03-11T11:27:54.421Z,3.27
2023-03-11T11:30:51.573Z,3.52
2023-03-11T11:33:47.902Z,3.39
2023-03-11T11:36:38.201Z,3.24
2023-03-11T11:39:26.326Z,3.19
2023-03-11T11:42:13.647Z,3.28
2023-03-11T11:45:25.194Z,3.40
2023-03-11T11:48:17.648Z,3.57
2023-03-11T11:51:08.881Z,3.71
2023-03-11T11:54:10.997Z,4.21
2023-03-11T11:56:56.502Z,4.21
2023-03-11T11:59:42.304Z,4.16
2023-03-11T12:02:54.583Z,4.20
2023-03-11T12:05:58.394Z,3.94
2023-03-11T12:09:05.537Z,3.66
2023-03-11T12:11:53.854Z,3.63
2023-03-11T12:14:39.277Z,3.99
2023-03-11T12:17:25.937Z,4.10
2023-03-11T12:20:18.780Z,4.15
2023-03-11T12:23:18.249Z,4.08
2023-03-11T12:26:15.813Z,4.06
2023-03-11T12:29:04.732Z,3.91
2023-03-11T12:31:50.393Z,3.61
2023-03-11T12:34:36.115Z,3.52
2023-03-11T12:37:23.211Z,3.51
2023-03-11T12:40:27.175Z,3.58
2023-03-11T12:43:25.478Z,3.71
2023-03-11T12:46:17.509Z,3.76
2023-03-11T12:49:11.936Z,3.84
2023-03-11T12:52:06.220Z,3.61
2023-03-11T12:55:01.276Z,3.42
2023-03-11T12:57:46.647Z,3.42
2023-03-11T13:00:45.079Z,3.32
2023-03-11T13:03:49.720Z,3.29
2023-03-11T13:07:04.773Z,3.17
2023-03-11T13:10:08.017Z,3.30
2023-03-11T13:12:53.276Z,3.33
2023-03-11T13:15:39.396Z,3.23
2023-03-11T13:18:26.422Z,3.25
2023-03-11T13:21:26.896Z,3.31
2023-03-11T13:24:18.384Z,3.39
2023-03-11T13:27:08.530Z,3.34
2023-03-11T13:30:05.348Z,3.42
2023-03-11T13:32:53.839Z,3.43
2023-03-11T13:35:57.580Z,3.47
2023-03-11T13:38:55.937Z,3.48
2023-03-11T13:41:42.997Z,3.56
2023-03-11T13:44:39.317Z,3.57
2023-03-11T13:47:26.288Z,3.54
2023-03-11T13:50:22.519Z,3.58
2023-03-11T13:53:18.331Z,3.60
2023-03-11T13:56:04.105Z,3.63
2023-03-11T13:58:49.337Z,4.03
2023-03-11T14:01:34.769Z,4.10
2023-03-11T14:04:24.076Z,3.90
2023-03-11T14:07:35.137Z,3.80
2023-03-11T14:10:21.476Z,3.85
2023-03-11T14:13:18.241Z,3.84
2023-03-11T14:16:08.664Z,3.80
2023-03-11T14:19:13.871Z,3.72
2023-03-11T14:21:59.015Z,3.66
2023-03-11T14:24:47.977Z,3.57
2023-03-11T14:27:33.204Z,3.80
2023-03-11T14:30:20.426Z,3.99
2023-03-11T14:33:18.398Z,3.99
2023-03-11T14:36:07.461Z,4.13
2023-03-11T14:38:52.832Z,4.14
2023-03-11T14:41:39.897Z,4.11
2023-03-11T14:44:26.828Z,3.88
2023-03-11T14:47:15.059Z,3.80
2023-03-11T14:50:00.918Z,3.60
2023-03-11T14:52:52.535Z,3.51
2023-03-11T14:56:10.193Z,3.58
2023-03-11T14:59:15.822Z,3.69
2023-03-11T15:02:24.144Z,3.72
2023-03-11T15:05:18.023Z,3.93
2023-03-11T15:08:05.337Z,3.97
2023-03-11T15:11:05.818Z,4.05
2023-03-11T15:13:52.463Z,3.98
2023-03-11T15:16:37.546Z,3.98
2023-03-11T15:19:29.217Z,3.85
2023-03-11T15:22:30.006Z,3.86
2023-03-11T15:25:17.445Z,3.86
2023-03-11T15:28:24.100Z,3.81
2023-03-11T15:31:16.987Z,3.70
2023-03-11T15:34:10.108Z,3.69
2023-03-11T15:36:57.203Z,3.63
2023-03-11T15:39:44.061Z,3.54
2023-03-11T15:42:29.569Z,3.53
2023-03-11T15:45:16.844Z,3.50
2023-03-11T15:48:02.127Z,3.39
2023-03-11T15:50:53.319Z,3.32
2023-03-11T15:53:39.534Z,3.27
2023-03-11T15:56:25.250Z,3.23
2023-03-11T15:59:13.692Z,3.13
2023-03-11T16:01:59.555Z,3.13
2023-03-11T16:04:44.781Z,3.12
2023-03-11T16:07:39.429Z,3.15
2023-03-11T16:10:25.810Z,3.18
2023-03-11T16:13:13.261Z,3.12
2023-03-11T16:15:58.619Z,3.07
2023-03-11T16:18:44.167Z,3.13
2023-03-11T16:21:34.215Z,3.11
2023-03-11T16:24:20.763Z,3.02
2023-03-11T16:27:05.834Z,2.97
2023-03-11T16:29:51.544Z,3.06
2023-03-11T16:32:36.790Z,3.27
2023-03-11T16:35:22.434Z,3.25
2023-03-11T16:38:08.162Z,3.21
